createdAt,value
2022-11-19T00:01:31.971Z,-2.87
2022-11-19T00:03:58.464Z,-2.89
2022-11-19T00:06:26.942Z,-2.92
2022-11-19T00:08:54.474Z,-2.94
2022-11-19T00:11:24.425Z,-2.95
2022-11-19T00:13:50.814Z,-2.96
2022-11-19T00:16:17.249Z,-2.96
2022-11-19T00:18:43.648Z,-2.98
2022-11-19T00:21:13.375Z,-2.99
2022-11-19T00:23:40.738Z,-2.98
2022-11-19T00:26:15.105Z,-2.99
2022-11-19T00:28:42.232Z,-2.98
2022-11-19T00:31:11.873Z,-2.99
2022-11-19T00:33:40.074Z,-3.02
2022-11-19T00:36:09.257Z,-3.03
2022-11-19T00:38:35.712Z,-3.05
2022-11-19T00:41:02.365Z,-3.05
2022-11-19T00:43:29.099Z,-3.06
2022-11-19T00:45:55.642Z,-3.07
2022-11-19T00:48:22.064Z,-3.08
2022-11-19T00:50:48.518Z,-3.09
2022-11-19T00:53:14.926Z,-3.10
2022-11-19T00:55:41.420Z,-3.12
2022-11-19T00:58:07.976Z,-3.15
2022-11-19T01:00:34.516Z,-3.16
2022-11-19T01:03:01.012Z,-3.19
2022-11-19T01:05:27.481Z,-3.21
2022-11-19T01:07:54.296Z,-3.23
2022-11-19T01:10:20.715Z,-3.24
2022-11-19T01:12:47.143Z,-3.26
2022-11-19T01:15:13.617Z,-3.26
2022-11-19T01:17:40.152Z,-3.26
2022-11-19T01:20:07.662Z,-3.25
2022-11-19T01:22:34.145Z,-3.24
2022-11-19T01:25:00.695Z,-3.23
2022-11-19T01:27:27.284Z,-3.24
2022-11-19T01:29:53.654Z,-3.25
2022-11-19T01:32:20.122Z,-3.27
2022-11-19T01:34:46.657Z,-3.29
2022-11-19T01:37:13.037Z,-3.31
2022-11-19T01:39:39.428Z,-3.33
2022-11-19T01:42:06.273Z,-3.35
2022-11-19T01:45:00.258Z,-3.35
2022-11-19T01:47:27.406Z,-3.34
2022-11-19T01:49:54.540Z,-3.34
2022-11-19T01:52:22.338Z,-3.32
2022-11-19T01:54:55.736Z,-3.30
2022-11-19T01:57:22.581Z,-3.27
2022-11-19T01:59:52.015Z,-3.25
2022-11-19T02:02:19.867Z,-3.23
2022-11-19T02:04:47.202Z,-3.21
2022-11-19T02:07:14.243Z,-3.19
2022-11-19T02:09:41.485Z,-3.17
2022-11-19T02:12:32.136Z,-3.15
2022-11-19T02:15:22.137Z,-3.13
2022-11-19T02:18:06.689Z,-3.11
2022-11-19T02:21:05.383Z,-3.09
2022-11-19T02:24:09.511Z,-3.07
2022-11-19T02:26:42.197Z,-3.06
2022-11-19T02:29:26.871Z,-3.05
2022-11-19T02:32:01.180Z,-3.05
2022-11-19T02:34:34.507Z,-3.03
2022-11-19T02:37:10.440Z,-3.03
2022-11-19T02:39:46.098Z,-3.01
2022-11-19T02:42:18.478Z,-3.00
2022-11-19T02:44:48.428Z,-2.98
2022-11-19T02:47:22.474Z,-2.98
2022-11-19T02:49:53.480Z,-3.00
2022-11-19T02:52:20.829Z,-3.00
2022-11-19T02:54:47.874Z,-3.00
2022-11-19T02:57:14.620Z,-3.00
2022-11-19T02:59:48.868Z,-2.99
2022-11-19T03:02:18.779Z,-2.97
2022-11-19T03:04:45.213Z,-2.96
2022-11-19T03:07:17.490Z,-2.96
2022-11-19T03:09:57.535Z,-2.98
2022-11-19T03:12:36.266Z,-2.98
2022-11-19T03:15:23.600Z,-2.99
2022-11-19T03:18:13.893Z,-3.00
2022-11-19T03:20:50.483Z,-3.01
2022-11-19T03:23:32.679Z,-3.02
2022-11-19T03:26:26.051Z,-3.03
2022-11-19T03:28:55.283Z,-3.04
2022-11-19T03:31:25.995Z,-3.04
2022-11-19T03:33:57.286Z,-3.05
2022-11-19T03:36:30.157Z,-3.04
2022-11-19T03:39:02.046Z,-3.04
2022-11-19T03:41:29.773Z,-3.03
2022-11-19T03:44:09.966Z,-3.03
2022-11-19T03:46:39.736Z,-3.03
2022-11-19T03:49:08.325Z,-3.03
2022-11-19T03:51:40.716Z,-3.03
2022-11-19T03:54:08.433Z,-3.03
2022-11-19T03:56:39.020Z,-3.02
2022-11-19T03:59:08.462Z,-3.01
2022-11-19T04:01:35.276Z,-3.00
2022-11-19T04:04:01.732Z,-2.98
2022-11-19T04:06:28.256Z,-2.96
2022-11-19T04:08:54.676Z,-2.96
2022-11-19T04:13:46.547Z,-2.97
2022-11-19T04:16:13.203Z,-2.96
2022-11-19T04:18:39.628Z,-2.94
2022-11-19T04:21:06.269Z,-2.93
2022-11-19T04:23:32.741Z,-2.91
2022-11-19T04:25:59.254Z,-2.90
2022-11-19T04:28:25.898Z,-2.89
2022-11-19T04:30:52.346Z,-2.92
2022-11-19T04:33:18.730Z,-2.92
2022-11-19T04:35:46.399Z,-2.93
2022-11-19T04:38:12.919Z,-2.96
2022-11-19T04:40:39.323Z,-2.98
2022-11-19T04:43:05.759Z,-3.00
2022-11-19T04:45:32.572Z,-3.02
2022-11-19T04:47:58.995Z,-3.02
2022-11-19T04:50:25.584Z,-3.00
2022-11-19T04:52:51.999Z,-3.01
2022-11-19T04:55:18.427Z,-3.02
2022-11-19T04:57:44.848Z,-3.05
2022-11-19T05:00:12.154Z,-3.07
2022-11-19T05:02:38.550Z,-3.09
2022-11-19T05:05:05.655Z,-3.09
2022-11-19T05:07:32.236Z,-3.11
2022-11-19T05:09:58.724Z,-3.11
2022-11-19T05:12:25.264Z,-3.12
2022-11-19T05:14:51.703Z,-3.11
2022-11-19T05:17:18.245Z,-3.12
2022-11-19T05:19:44.711Z,-3.13
2022-11-19T05:22:11.090Z,-3.14
2022-11-19T05:24:37.547Z,-3.15
2022-11-19T05:27:04.366Z,-3.14
2022-11-19T05:29:30.955Z,-3.15
2022-11-19T05:31:57.382Z,-3.15
2022-11-19T05:34:23.931Z,-3.16
2022-11-19T05:36:50.367Z,-3.15
2022-11-19T05:39:21.817Z,-3.15
2022-11-19T05:41:48.918Z,-3.14
2022-11-19T05:44:15.355Z,-3.15
2022-11-19T05:46:41.760Z,-3.14
2022-11-19T05:49:08.293Z,-3.14
2022-11-19T05:51:35.267Z,-3.14
2022-11-19T05:54:01.747Z,-3.14
2022-11-19T05:56:28.243Z,-3.15
2022-11-19T05:58:54.654Z,-3.15
2022-11-19T06:01:28.596Z,-3.16
2022-11-19T06:03:55.909Z,-3.15
2022-11-19T06:06:23.126Z,-3.15
2022-11-19T06:08:50.449Z,-3.15
2022-11-19T06:11:17.378Z,-3.15
2022-11-19T06:13:43.780Z,-3.16
2022-11-19T06:16:10.274Z,-3.13
2022-11-19T06:18:36.658Z,-3.12
2022-11-19T06:21:11.930Z,-3.11
2022-11-19T06:23:38.722Z,-3.10
2022-11-19T06:26:08.197Z,-3.06
2022-11-19T06:28:34.645Z,-3.05
2022-11-19T06:31:01.390Z,-3.04
2022-11-19T06:33:27.941Z,-3.03
2022-11-19T06:35:54.879Z,-3.02
2022-11-19T06:38:21.423Z,-3.00
2022-11-19T06:40:48.170Z,-2.99
2022-11-19T06:43:14.603Z,-2.98
2022-11-19T06:45:41.118Z,-2.95
2022-11-19T06:48:07.683Z,-2.94
2022-11-19T06:50:34.124Z,-2.91
2022-11-19T06:53:00.622Z,-2.90
2022-11-19T06:55:27.111Z,-2.88
2022-11-19T06:57:53.559Z,-2.86
2022-11-19T07:00:20.283Z,-2.84
2022-11-19T07:02:47.323Z,-2.82
2022-11-19T07:05:13.763Z,-2.81
2022-11-19T07:07:40.300Z,-2.80
2022-11-19T07:10:07.449Z,-2.79
2022-11-19T07:12:33.859Z,-2.76
2022-11-19T07:15:04.322Z,-2.73
2022-11-19T07:17:31.319Z,-2.69
2022-11-19T07:19:58.746Z,-2.62
2022-11-19T07:22:25.286Z,-2.55
2022-11-19T07:24:51.753Z,-2.51
2022-11-19T07:27:18.264Z,-2.47
2022-11-19T07:29:44.764Z,-2.43
2022-11-19T07:32:11.181Z,-2.41
2022-11-19T07:34:37.593Z,-2.36
2022-11-19T07:37:04.092Z,-2.33
2022-11-19T07:39:30.470Z,-2.31
2022-11-19T07:41:57.001Z,-2.31
2022-11-19T07:44:23.635Z,-2.28
2022-11-19T07:46:50.214Z,-2.21
2022-11-19T07:49:17.211Z,-2.15
2022-11-19T07:51:44.177Z,-2.13
2022-11-19T07:54:12.189Z,-2.11
2022-11-19T07:56:38.690Z,-2.07
2022-11-19T07:59:05.430Z,-1.98
2022-11-19T08:01:31.908Z,-1.94
2022-11-19T08:03:58.310Z,-1.95
2022-11-19T08:06:28.160Z,-1.95
2022-11-19T08:08:55.797Z,-1.95
2022-11-19T08:11:23.225Z,-1.92
2022-11-19T08:13:49.696Z,-1.91
2022-11-19T08:16:17.567Z,-1.84
2022-11-19T08:18:44.502Z,-1.78
2022-11-19T08:21:12.285Z,-1.72
2022-11-19T08:23:39.517Z,-1.66
2022-11-19T08:26:07.513Z,-1.60
2022-11-19T08:28:34.054Z,-1.58
2022-11-19T08:31:08.536Z,-1.60
2022-11-19T08:33:35.838Z,-1.63
2022-11-19T08:36:02.889Z,-1.59
2022-11-19T08:38:32.278Z,-1.56
2022-11-19T08:41:01.022Z,-1.55
2022-11-19T08:43:27.528Z,-1.52
2022-11-19T08:45:54.078Z,-1.47
2022-11-19T08:48:20.518Z,-1.44
2022-11-19T08:50:47.144Z,-1.40
2022-11-19T08:53:13.685Z,-1.41
2022-11-19T08:55:40.267Z,-1.41
2022-11-19T08:58:07.789Z,-1.43
2022-11-19T09:00:36.442Z,-1.36
2022-11-19T09:03:03.126Z,-1.35
2022-11-19T09:05:29.506Z,-1.25
2022-11-19T09:07:55.940Z,-1.08
2022-11-19T09:10:22.619Z,-0.88
2022-11-19T09:12:49.274Z,-0.82
2022-11-19T09:15:16.009Z,-0.75
2022-11-19T09:17:46.562Z,-0.72
2022-11-19T09:20:13.552Z,-0.74
2022-11-19T09:22:40.045Z,-0.75
2022-11-19T09:25:07.154Z,-0.67
2022-11-19T09:27:33.740Z,-0.51
2022-11-19T09:30:00.183Z,-0.39
2022-11-19T09:32:28.488Z,-0.38
2022-11-19T09:34:55.108Z,-0.41
2022-11-19T09:37:21.560Z,-0.29
2022-11-19T09:39:48.090Z,-0.23
2022-11-19T09:42:39.716Z,-0.32
2022-11-19T09:45:26.223Z,-0.39
2022-11-19T09:48:07.893Z,-0.46
2022-11-19T09:50:41.232Z,-0.50
2022-11-19T09:53:15.441Z,-0.54
2022-11-19T09:55:45.383Z,-0.43
2022-11-19T09:58:37.928Z,-0.34
2022-11-19T10:01:04.691Z,-0.31
2022-11-19T10:03:33.823Z,-0.39
2022-11-19T10:06:00.498Z,-0.41
2022-11-19T10:08:33.131Z,-0.34
2022-11-19T10:11:50.924Z,-0.29
2022-11-19T10:15:05.453Z,-0.22
2022-11-19T10:17:47.089Z,-0.21
2022-11-19T10:20:16.576Z,-0.28
2022-11-19T10:22:57.663Z,-0.24
2022-11-19T10:25:39.308Z,-0.15
2022-11-19T10:28:13.898Z,-0.08
2022-11-19T10:30:46.782Z,-0.05
2022-11-19T10:33:47.159Z,0.01
2022-11-19T10:36:24.813Z,0.04
2022-11-19T10:39:10.303Z,-0.04
2022-11-19T10:41:49.287Z,-0.22
2022-11-19T10:44:23.720Z,-0.38
2022-11-19T10:46:50.908Z,-0.35
2022-11-19T10:49:17.644Z,-0.27
2022-11-19T10:51:44.601Z,-0.21
2022-11-19T10:54:23.101Z,-0.27
2022-11-19T10:56:52.239Z,-0.35
2022-11-19T10:59:27.067Z,-0.28
2022-11-19T11:02:02.119Z,-0.23
2022-11-19T11:04:29.971Z,-0.29
2022-11-19T11:06:59.304Z,-0.36
2022-11-19T11:09:37.546Z,-0.33
2022-11-19T11:12:22.678Z,-0.26
2022-11-19T11:14:49.817Z,-0.18
2022-11-19T11:17:28.646Z,-0.09
2022-11-19T11:20:00.518Z,-0.01
2022-11-19T11:22:27.888Z,0.03
2022-11-19T11:24:54.814Z,0.01
2022-11-19T11:27:29.091Z,-0.01
2022-11-19T11:30:25.071Z,-0.06
2022-11-19T11:32:51.646Z,-0.14
2022-11-19T11:35:32.186Z,-0.10
2022-11-19T11:38:01.560Z,-0.09
2022-11-19T11:40:29.543Z,-0.15
2022-11-19T11:42:56.206Z,-0.19
2022-11-19T11:45:32.744Z,-0.16
2022-11-19T11:48:08.330Z,-0.14
2022-11-19T11:50:37.023Z,-0.16
2022-11-19T11:53:09.298Z,-0.19
2022-11-19T11:55:35.941Z,-0.22
2022-11-19T11:58:05.345Z,-0.21
2022-11-19T12:00:40.798Z,-0.17
2022-11-19T12:03:09.961Z,-0.10
2022-11-19T12:06:16.496Z,-0.06
2022-11-19T12:09:03.086Z,-0.08
2022-11-19T12:11:47.630Z,-0.08
2022-11-19T12:14:19.109Z,-0.11
2022-11-19T12:16:48.511Z,-0.22
2022-11-19T12:19:26.931Z,-0.35
2022-11-19T12:22:02.275Z,-0.45
2022-11-19T12:24:59.948Z,-0.55
2022-11-19T12:27:26.318Z,-0.62
2022-11-19T12:30:15.868Z,-0.66
2022-11-19T12:33:05.153Z,-0.76
2022-11-19T12:35:46.732Z,-0.80
2022-11-19T12:38:15.939Z,-0.84
2022-11-19T12:40:53.129Z,-0.86
2022-11-19T12:43:43.016Z,-0.89
2022-11-19T12:46:27.981Z,-0.91
2022-11-19T12:49:29.635Z,-0.92
2022-11-19T12:51:56.021Z,-0.86
2022-11-19T12:54:59.718Z,-0.82
2022-11-19T12:57:47.149Z,-0.80
2022-11-19T13:00:19.829Z,-0.83
2022-11-19T13:03:04.591Z,-0.82
2022-11-19T13:05:41.551Z,-0.83
2022-11-19T13:08:35.307Z,-0.82
2022-11-19T13:11:33.726Z,-0.73
2022-11-19T13:14:03.280Z,-0.71
2022-11-19T13:16:33.651Z,-0.71
2022-11-19T13:19:39.462Z,-0.72
2022-11-19T13:22:17.862Z,-0.69
2022-11-19T13:24:59.764Z,-0.68
2022-11-19T13:27:28.462Z,-0.71
2022-11-19T13:30:02.568Z,-0.71
2022-11-19T13:32:59.086Z,-0.70
2022-11-19T13:35:43.375Z,-0.70
2022-11-19T13:38:31.122Z,-0.73
2022-11-19T13:41:24.658Z,-0.79
2022-11-19T13:43:54.416Z,-0.83
2022-11-19T13:46:34.349Z,-0.88
2022-11-19T13:49:07.546Z,-0.96
2022-11-19T13:51:44.640Z,-1.01
2022-11-19T13:54:40.013Z,-1.07
2022-11-19T13:57:09.470Z,-1.12
2022-11-19T13:59:47.776Z,-1.12
2022-11-19T14:02:55.785Z,-1.12
2022-11-19T14:05:35.738Z,-1.22
2022-11-19T14:08:14.535Z,-1.28
2022-11-19T14:10:49.202Z,-1.32
2022-11-19T14:13:44.418Z,-1.34
2022-11-19T14:16:19.827Z,-1.34
2022-11-19T14:18:54.538Z,-1.31
2022-11-19T14:21:24.472Z,-1.29
2022-11-19T14:23:50.949Z,-1.29
2022-11-19T14:26:42.501Z,-1.30
2022-11-19T14:29:18.538Z,-1.35
2022-11-19T14:32:00.184Z,-1.38
2022-11-19T14:34:30.344Z,-1.43
2022-11-19T14:37:00.897Z,-1.51
2022-11-19T14:39:38.916Z,-1.56
2022-11-19T14:42:18.025Z,-1.60
2022-11-19T14:45:13.987Z,-1.65
2022-11-19T14:47:42.304Z,-1.69
2022-11-19T14:50:21.668Z,-1.73
2022-11-19T14:52:57.855Z,-1.75
2022-11-19T14:55:30.477Z,-1.78
2022-11-19T14:58:04.144Z,-1.81
2022-11-19T15:00:37.014Z,-1.87
2022-11-19T15:03:07.404Z,-1.93
2022-11-19T15:05:40.330Z,-1.99
2022-11-19T15:08:18.871Z,-2.04
2022-11-19T15:11:06.499Z,-2.08
2022-11-19T15:13:35.497Z,-2.12
2022-11-19T15:16:05.795Z,-2.14
2022-11-19T15:18:41.345Z,-2.14
2022-11-19T15:21:13.750Z,-2.14
2022-11-19T15:24:04.293Z,-2.14
2022-11-19T15:26:36.534Z,-2.13
2022-11-19T15:29:22.428Z,-2.12
2022-11-19T15:32:39.452Z,-2.12
2022-11-19T15:35:19.794Z,-2.11
2022-11-19T15:37:51.249Z,-2.12
2022-11-19T15:40:23.732Z,-2.13
2022-11-19T15:43:02.030Z,-2.14
2022-11-19T15:45:36.582Z,-2.14
2022-11-19T15:48:17.970Z,-2.15
2022-11-19T15:50:45.101Z,-2.18
2022-11-19T15:53:23.355Z,-2.20
2022-11-19T15:55:58.305Z,-2.22
2022-11-19T15:58:28.535Z,-2.25
2022-11-19T16:00:55.888Z,-2.28
2022-11-19T16:03:23.284Z,-2.30
2022-11-19T16:06:01.453Z,-2.33
2022-11-19T16:08:28.542Z,-2.34
2022-11-19T16:10:55.436Z,-2.34
2022-11-19T16:13:26.566Z,-2.36
2022-11-19T16:15:54.581Z,-2.40
2022-11-19T16:18:21.099Z,-2.46
2022-11-19T16:20:51.444Z,-2.52
2022-11-19T16:23:24.045Z,-2.55
2022-11-19T16:25:51.342Z,-2.57
2022-11-19T16:28:29.778Z,-2.56
2022-11-19T16:31:04.597Z,-2.53
2022-11-19T16:33:32.917Z,-2.49
2022-11-19T16:36:17.444Z,-2.46
2022-11-19T16:38:48.029Z,-2.42
2022-11-19T16:41:17.801Z,-2.39
2022-11-19T16:43:45.569Z,-2.37
2022-11-19T16:46:15.831Z,-2.33
2022-11-19T16:48:42.340Z,-2.31
2022-11-19T16:51:32.225Z,-2.28
2022-11-19T16:53:59.165Z,-2.26
2022-11-19T16:56:26.927Z,-2.23
2022-11-19T16:58:59.135Z,-2.22
2022-11-19T17:01:29.663Z,-2.20
2022-11-19T17:04:06.470Z,-2.18
2022-11-19T17:06:36.137Z,-2.17
2022-11-19T17:09:05.032Z,-2.18
2022-11-19T17:11:50.102Z,-2.17
2022-11-19T17:14:16.540Z,-2.17
2022-11-19T17:16:51.486Z,-2.16
2022-11-19T17:19:30.837Z,-2.13
2022-11-19T17:22:01.853Z,-2.11
2022-11-19T17:24:34.443Z,-2.09
2022-11-19T17:27:00.986Z,-2.06
2022-11-19T17:29:27.731Z,-2.06
2022-11-19T17:31:55.706Z,-2.05
2022-11-19T17:34:27.771Z,-2.04
2022-11-19T17:36:54.178Z,-2.04
2022-11-19T17:39:25.151Z,-2.02
2022-11-19T17:41:55.582Z,-2.02
2022-11-19T17:44:25.913Z,-2.02
2022-11-19T17:46:52.354Z,-2.01
2022-11-19T17:49:18.837Z,-2.01
2022-11-19T17:51:45.274Z,-2.00
2022-11-19T17:54:11.963Z,-1.97
2022-11-19T17:56:38.519Z,-1.94
2022-11-19T17:59:04.961Z,-1.92
2022-11-19T18:01:31.514Z,-1.91
2022-11-19T18:03:58.143Z,-1.90
2022-11-19T18:06:24.695Z,-1.90
2022-11-19T18:08:51.652Z,-1.90
2022-11-19T18:11:21.652Z,-1.90
2022-11-19T18:13:51.703Z,-1.89
2022-11-19T18:16:23.881Z,-1.90
2022-11-19T18:18:51.314Z,-1.90
2022-11-19T18:21:20.413Z,-1.90
2022-11-19T18:23:48.715Z,-1.90
2022-11-19T18:26:18.078Z,-1.91
2022-11-19T18:28:47.754Z,-1.91
2022-11-19T18:31:19.122Z,-1.94
2022-11-19T18:33:46.031Z,-1.95
2022-11-19T18:36:12.486Z,-1.99
2022-11-19T18:38:39.088Z,-2.03
2022-11-19T18:41:05.710Z,-2.09
2022-11-19T18:43:36.193Z,-2.15
2022-11-19T18:46:05.501Z,-2.22
2022-11-19T18:48:31.901Z,-2.29
2022-11-19T18:50:58.302Z,-2.35
2022-11-19T18:53:24.802Z,-2.40
2022-11-19T18:55:52.227Z,-2.46
2022-11-19T18:58:18.719Z,-2.53
2022-11-19T19:00:45.310Z,-2.61
2022-11-19T19:03:11.859Z,-2.72
2022-11-19T19:05:39.106Z,-2.81
2022-11-19T19:08:06.000Z,-2.91
2022-11-19T19:10:33.548Z,-3.02
2022-11-19T19:13:00.276Z,-3.13
2022-11-19T19:15:26.819Z,-3.15
2022-11-19T19:17:53.556Z,-3.16
2022-11-19T19:20:20.007Z,-3.19
2022-11-19T19:22:46.538Z,-3.25
2022-11-19T19:25:12.983Z,-3.32
2022-11-19T19:27:39.495Z,-3.43
2022-11-19T19:30:06.664Z,-3.52
2022-11-19T19:32:33.061Z,-3.59
2022-11-19T19:34:59.645Z,-3.68
2022-11-19T19:37:26.185Z,-3.75
2022-11-19T19:39:52.728Z,-3.79
2022-11-19T19:42:19.271Z,-3.86
2022-11-19T19:44:45.800Z,-3.91
2022-11-19T19:47:12.338Z,-3.94
2022-11-19T19:49:39.273Z,-3.97
2022-11-19T19:52:05.934Z,-4.02
2022-11-19T19:54:32.335Z,-4.03
2022-11-19T19:56:58.915Z,-4.06
2022-11-19T19:59:25.437Z,-4.11
2022-11-19T20:01:51.959Z,-4.14
2022-11-19T20:04:18.527Z,-4.18
2022-11-19T20:06:46.835Z,-4.24
2022-11-19T20:09:13.623Z,-4.30
2022-11-19T20:11:40.194Z,-4.37
2022-11-19T20:14:07.243Z,-4.42
2022-11-19T20:16:34.932Z,-4.47
2022-11-19T20:19:02.195Z,-4.50
2022-11-19T20:21:31.868Z,-4.50
2022-11-19T20:23:58.523Z,-4.50
2022-11-19T20:26:30.618Z,-4.49
2022-11-19T20:28:59.998Z,-4.48
2022-11-19T20:31:27.463Z,-4.50
2022-11-19T20:33:57.372Z,-4.53
2022-11-19T20:36:25.667Z,-4.56
2022-11-19T20:38:52.715Z,-4.59
2022-11-19T20:41:21.613Z,-4.58
2022-11-19T20:43:52.644Z,-4.57
2022-11-19T20:46:21.710Z,-4.56
2022-11-19T20:48:49.318Z,-4.56
2022-11-19T20:51:15.992Z,-4.55
2022-11-19T20:53:43.046Z,-4.54
2022-11-19T20:56:09.738Z,-4.54
2022-11-19T20:58:36.178Z,-4.54
2022-11-19T21:01:08.464Z,-4.56
2022-11-19T21:03:35.008Z,-4.60
2022-11-19T21:06:04.061Z,-4.63
2022-11-19T21:08:31.880Z,-4.67
2022-11-19T21:11:01.693Z,-4.69
2022-11-19T21:13:28.645Z,-4.72
2022-11-19T21:15:57.230Z,-4.76
2022-11-19T21:18:24.642Z,-4.78
2022-11-19T21:20:52.134Z,-4.77
2022-11-19T21:23:19.114Z,-4.76
2022-11-19T21:25:45.972Z,-4.77
2022-11-19T21:28:12.571Z,-4.78
2022-11-19T21:30:38.997Z,-4.80
2022-11-19T21:33:05.578Z,-4.82
2022-11-19T21:35:31.990Z,-4.84
2022-11-19T21:37:58.550Z,-4.86
2022-11-19T21:40:25.092Z,-4.86
2022-11-19T21:42:52.066Z,-4.86
2022-11-19T21:45:18.590Z,-4.84
2022-11-19T21:47:45.316Z,-4.81
2022-11-19T21:50:11.957Z,-4.78
2022-11-19T21:52:38.498Z,-4.76
2022-11-19T21:55:05.860Z,-4.76
2022-11-19T21:57:32.296Z,-4.75
2022-11-19T21:59:58.837Z,-4.78
2022-11-19T22:02:25.376Z,-4.78
2022-11-19T22:04:51.911Z,-4.78
2022-11-19T22:07:18.323Z,-4.77
2022-11-19T22:09:45.094Z,-4.78
2022-11-19T22:12:11.634Z,-4.77
2022-11-19T22:14:38.010Z,-4.78
2022-11-19T22:17:04.614Z,-4.80
2022-11-19T22:19:31.045Z,-4.80
2022-11-19T22:21:57.593Z,-4.79
2022-11-19T22:24:24.338Z,-4.78
2022-11-19T22:26:50.886Z,-4.78
2022-11-19T22:29:17.273Z,-4.77
2022-11-19T22:31:43.854Z,-4.78
2022-11-19T22:34:12.033Z,-4.77
2022-11-19T22:36:38.615Z,-4.76
2022-11-19T22:39:05.062Z,-4.74
2022-11-19T22:41:31.555Z,-4.75
2022-11-19T22:43:58.600Z,-4.74
2022-11-19T22:46:25.140Z,-4.72
2022-11-19T22:48:51.929Z,-4.67
2022-11-19T22:51:21.296Z,-4.66
2022-11-19T22:53:50.041Z,-4.66
2022-11-19T22:56:19.690Z,-4.65
2022-11-19T22:58:46.889Z,-4.65
2022-11-19T23:01:28.232Z,-4.62
2022-11-19T23:03:56.507Z,-4.58
2022-11-19T23:06:23.642Z,-4.55
2022-11-19T23:08:51.302Z,-4.49
2022-11-19T23:11:20.521Z,-4.43
2022-11-19T23:13:47.113Z,-4.39
2022-11-19T23:16:16.548Z,-4.34
2022-11-19T23:18:48.164Z,-4.30
2022-11-19T23:21:16.025Z,-4.32
2022-11-19T23:23:42.913Z,-4.37
2022-11-19T23:26:12.287Z,-4.39
2022-11-19T23:28:39.871Z,-4.41
2022-11-19T23:31:14.122Z,-4.43
2022-11-19T23:33:41.023Z,-4.48
2022-11-19T23:36:12.590Z,-4.53
2022-11-19T23:38:39.626Z,-4.57
2022-11-19T23:41:09.942Z,-4.61
2022-11-19T23:43:37.654Z,-4.64
2022-11-19T23:46:09.936Z,-4.66
2022-11-19T23:48:38.178Z,-4.66
2022-11-19T23:51:07.602Z,-4.66
2022-11-19T23:53:34.641Z,-4.65
2022-11-19T23:56:01.490Z,-4.65
2022-11-19T23:58:28.649Z,-4.69
